Butterfly — V7DW2 — position and weather

sailwx.info

Track history (hours):
 
Tides and Currents Weather Stations Pressure Air Temp Water Temp Dewpoint Dewpoint Depression Visibility Wind Speed Wind Dir Waves Ship Positions

Butterfly

Last reported at 2018-Jul-17 18:03 UTC. Time now 2018-Jul-20 21:42 UTC.
Position N 38°05' W 121°39'.

Length 38 m; draft 1.5 m.

Type: High speed craft. MMSI: 538070979.

Date/timePositionNaut miles runAvg speedWind from/ knotsBaromVisibWave heightAir tempDewpointWater temp
2018-Jul-17 18:03N 38°05' W 121°39'112.3
2018-Jul-17 17:58N 38°06' W 121°41'1010.2
2018-Jul-17 17:00N 38°02' W 121°52'1712.1
2018-Jul-17 15:35N 38°04' W 122°14'319.3
2018-Jul-17 15:26N 38°03' W 122°17'922.4
2018-Jul-17 15:00N 37°57' W 122°27'1122.5
2018-Jul-17 14:31N 37°47' W 122°22'1427.3
2018-Jul-17 14:01N 37°35' W 122°14'4 0.3
2018-Jul-17 00:21N 37°31' W 122°12'1 0.0
2018-Jul-15 07:35N 37°32' W 122°12'0 4.4
2018-Jul-15 07:31N 37°32' W 122°12'1224.3
2018-Jul-15 07:01N 37°42' W 122°20'5 9.1
2018-Jul-15 06:29N 37°46' W 122°23'0 0.0
2018-Jul-15 05:59N 37°46' W 122°23'0 0.0
2018-Jul-15 05:29N 37°46' W 122°23'0 0.1
2018-Jul-15 04:59N 37°46' W 122°23'0 0.0
2018-Jul-15 04:29N 37°46' W 122°23'0 0.0
2018-Jul-15 03:59N 37°46' W 122°23'0 0.1
2018-Jul-15 03:29N 37°46' W 122°23'0 0.0
2018-Jul-15 02:59N 37°46' W 122°23'0 0.0
2018-Jul-15 02:29N 37°46' W 122°23'0 0.1
2018-Jul-15 02:01N 37°46' W 122°23'0 0.6
2018-Jul-15 01:30N 37°47' W 122°23'5 9.6
2018-Jul-15 01:01N 37°42' W 122°21'1316.7
2018-Jul-15 00:15N 37°31' W 122°12'  
Track history (hours):
 
Tides and Currents Weather Stations Pressure Air Temp Water Temp Dewpoint Dewpoint Depression Visibility Wind Speed Wind Dir Waves Ship Positions

Butterfly

Last reported at 2018-Jul-17 18:03 UTC. Time now 2018-Jul-20 21:42 UTC.
Position N 38°05' W 121°39'.

Length 38 m; draft 1.5 m.

Type: High speed craft. MMSI: 538070979.

Date/timePositionNaut miles runAvg speedWind from/ knotsBaromVisibWave heightAir tempDewpointWater temp
2018-Jul-17 18:03N 38°05' W 121°39'112.3
2018-Jul-17 17:58N 38°06' W 121°41'1010.2
2018-Jul-17 17:00N 38°02' W 121°52'1712.1
2018-Jul-17 15:35N 38°04' W 122°14'319.3
2018-Jul-17 15:26N 38°03' W 122°17'922.4
2018-Jul-17 15:00N 37°57' W 122°27'1122.5
2018-Jul-17 14:31N 37°47' W 122°22'1427.3
2018-Jul-17 14:01N 37°35' W 122°14'4 0.3
2018-Jul-17 00:21N 37°31' W 122°12'1 0.0
2018-Jul-15 07:35N 37°32' W 122°12'0 4.4
2018-Jul-15 07:31N 37°32' W 122°12'1224.3
2018-Jul-15 07:01N 37°42' W 122°20'5 9.1
2018-Jul-15 06:29N 37°46' W 122°23'0 0.0
2018-Jul-15 05:59N 37°46' W 122°23'0 0.0
2018-Jul-15 05:29N 37°46' W 122°23'0 0.1
2018-Jul-15 04:59N 37°46' W 122°23'0 0.0
2018-Jul-15 04:29N 37°46' W 122°23'0 0.0
2018-Jul-15 03:59N 37°46' W 122°23'0 0.1
2018-Jul-15 03:29N 37°46' W 122°23'0 0.0
2018-Jul-15 02:59N 37°46' W 122°23'0 0.0
2018-Jul-15 02:29N 37°46' W 122°23'0 0.1
2018-Jul-15 02:01N 37°46' W 122°23'0 0.6
2018-Jul-15 01:30N 37°47' W 122°23'5 9.6
2018-Jul-15 01:01N 37°42' W 122°21'1316.7
2018-Jul-15 00:15N 37°31' W 122°12'  

Dump ship's entire track history